Time;durP1;ratioP1;P1;durP2;ratioP2;P2;SDS_P1;SDS_P2;PMS_P1;PMS_P2;Temp;Humidity;BMP_temperature;BMP_pressure;BME280_temperature;BME280_humidity;BME280_pressure;Samples;Min_cycle;Max_cycle;Signal;HPM_P1;HPM_P2
2024/04/07 00:00:48;;;;;;;7.55;2.80;;;16.40;99.90;;;;;;5056520;28;20032;-85
2024/04/07 00:03:14;;;;;;;4.82;2.65;;;16.30;99.90;;;;;;5070193;28;20397;-85
2024/04/07 00:05:40;;;;;;;3.95;2.17;;;16.30;99.90;;;;;;5075745;28;20020;-86
2024/04/07 00:08:05;;;;;;;5.05;2.70;;;16.30;99.90;;;;;;5075929;28;20469;-86
2024/04/07 00:10:31;;;;;;;3.40;2.30;;;16.30;99.90;;;;;;5075572;28;20421;-90
2024/04/07 00:12:57;;;;;;;5.85;2.58;;;16.30;99.90;;;;;;5076265;28;20497;-86
2024/04/07 00:15:22;;;;;;;6.47;3.00;;;16.40;99.90;;;;;;5093252;28;20032;-85
2024/04/07 00:17:49;;;;;;;7.93;3.20;;;16.40;99.90;;;;;;5093931;28;20024;-86
2024/04/07 00:20:14;;;;;;;7.05;3.20;;;16.40;99.90;;;;;;5093858;28;20039;-85
2024/04/07 00:22:40;;;;;;;9.55;2.80;;;16.40;99.90;;;;;;5075676;28;20024;-85
2024/04/07 00:25:06;;;;;;;5.18;2.25;;;16.50;99.90;;;;;;5075902;28;20107;-83
2024/04/07 00:27:31;;;;;;;3.47;2.00;;;16.60;99.90;;;;;;5092779;28;20031;-86
2024/04/07 00:29:57;;;;;;;6.65;1.80;;;16.60;99.90;;;;;;5093597;28;20063;-87
2024/04/07 00:32:23;;;;;;;6.78;2.42;;;16.70;99.90;;;;;;5075169;28;20028;-88
2024/04/07 00:34:49;;;;;;;5.90;2.33;;;16.70;99.90;;;;;;5076160;28;20028;-83
2024/04/07 00:37:15;;;;;;;4.75;2.38;;;16.60;99.90;;;;;;5075563;28;20028;-83
2024/04/07 00:39:42;;;;;;;6.32;2.53;;;16.60;99.90;;;;;;5069841;28;20032;-85
2024/04/07 00:42:08;;;;;;;4.43;2.08;;;16.60;99.90;;;;;;5076105;28;20051;-92
2024/04/07 00:44:34;;;;;;;5.63;2.05;;;16.70;99.90;;;;;;5075406;28;20077;-87
2024/04/07 00:46:59;;;;;;;6.05;2.38;;;16.70;99.90;;;;;;5076153;28;20020;-89
2024/04/07 00:49:25;;;;;;;5.18;1.85;;;16.80;99.90;;;;;;5075205;28;20074;-86
2024/04/07 00:51:51;;;;;;;9.77;2.30;;;16.80;99.90;;;;;;5075401;28;20033;-84
2024/04/07 00:54:18;;;;;;;8.63;2.30;;;16.80;99.90;;;;;;5092961;28;20032;-87
2024/04/07 00:56:43;;;;;;;8.18;3.05;;;16.60;99.90;;;;;;5093394;28;20146;-83
2024/04/07 00:59:09;;;;;;;4.22;2.45;;;16.40;99.90;;;;;;5075397;28;20061;-83
2024/04/07 01:01:34;;;;;;;5.93;2.40;;;16.30;99.90;;;;;;5074426;28;20032;-85
2024/04/07 01:04:02;;;;;;;5.50;2.38;;;16.20;99.90;;;;;;5055455;28;20024;-86
2024/04/07 01:06:28;;;;;;;4.68;2.28;;;16.00;99.90;;;;;;5054841;28;20070;-85
2024/04/07 01:08:56;;;;;;;7.00;2.30;;;16.00;99.90;;;;;;5055596;28;20017;-86
2024/04/07 01:11:29;;;;;;;7.22;2.33;;;16.00;99.90;;;;;;5072690;28;20025;-86
2024/04/07 01:13:55;;;;;;;5.68;2.55;;;16.00;99.90;;;;;;5055257;28;20031;-86
2024/04/07 01:16:22;;;;;;;5.38;2.10;;;16.00;99.90;;;;;;5054929;28;20078;-85
2024/04/07 01:18:48;;;;;;;4.68;2.00;;;16.10;99.90;;;;;;5054993;28;20036;-87
2024/04/07 01:21:14;;;;;;;5.15;2.13;;;16.10;99.90;;;;;;5055292;28;20485;-87
2024/04/07 01:23:40;;;;;;;4.50;2.30;;;16.10;99.90;;;;;;5054980;28;20107;-85
2024/04/07 01:26:06;;;;;;;3.67;2.20;;;16.00;99.90;;;;;;5055368;28;20044;-85
2024/04/07 01:28:32;;;;;;;5.32;2.15;;;16.00;99.90;;;;;;5054610;28;20077;-85
2024/04/07 01:30:57;;;;;;;8.80;1.95;;;15.90;99.90;;;;;;5072914;28;20428;-83
2024/04/07 01:33:23;;;;;;;6.03;2.25;;;15.90;99.90;;;;;;5055934;28;20032;-86
2024/04/07 01:35:48;;;;;;;4.07;2.40;;;15.90;99.90;;;;;;5058854;28;20064;-85
2024/04/07 01:38:15;;;;;;;4.95;2.33;;;15.90;99.90;;;;;;5057902;28;20438;-85
2024/04/07 01:40:41;;;;;;;5.38;2.25;;;15.90;99.90;;;;;;5058149;28;20036;-90
2024/04/07 01:43:07;;;;;;;4.97;2.22;;;15.80;99.90;;;;;;5058879;28;20025;-91
2024/04/07 01:45:32;;;;;;;5.55;2.70;;;15.80;99.90;;;;;;5076200;28;20029;-85
2024/04/07 01:47:58;;;;;;;3.85;2.65;;;15.80;99.90;;;;;;5058463;28;20031;-88
2024/04/07 01:50:24;;;;;;;5.30;2.30;;;15.80;99.90;;;;;;5058068;28;20085;-87
2024/04/07 01:52:52;;;;;;;3.20;2.22;;;15.80;99.90;;;;;;5058592;28;20080;-84
2024/04/07 01:55:18;;;;;;;5.30;2.40;;;15.70;99.90;;;;;;5058009;28;20459;-85
2024/04/07 01:57:43;;;;;;;3.10;1.92;;;15.60;99.90;;;;;;5076224;28;20048;-86
2024/04/07 02:00:10;;;;;;;6.03;2.15;;;15.70;99.90;;;;;;5076014;28;20028;-84
2024/04/07 02:02:35;;;;;;;4.35;2.25;;;15.60;99.90;;;;;;5066470;28;20056;-85
2024/04/07 02:05:01;;;;;;;4.60;2.10;;;15.60;99.90;;;;;;5078643;28;20024;-85
2024/04/07 02:07:27;;;;;;;6.88;2.63;;;15.60;99.90;;;;;;5095873;28;20362;-88
2024/04/07 02:09:53;;;;;;;3.55;2.28;;;15.60;99.90;;;;;;5078064;28;20028;-86
2024/04/07 02:12:18;;;;;;;5.05;2.35;;;15.50;99.90;;;;;;5077818;28;20103;-87
2024/04/07 02:14:44;;;;;;;4.00;2.53;;;15.50;99.90;;;;;;5078071;28;20031;-85
2024/04/07 02:17:12;;;;;;;4.70;2.33;;;15.50;99.90;;;;;;5078141;28;20024;-85
2024/04/07 02:19:38;;;;;;;4.63;2.17;;;15.40;99.90;;;;;;5077381;28;20024;-84
2024/04/07 02:22:05;;;;;;;4.60;2.40;;;15.40;99.90;;;;;;5077928;28;20082;-85
2024/04/07 02:24:31;;;;;;;6.75;2.42;;;15.50;99.90;;;;;;5077101;28;20169;-85
2024/04/07 02:26:56;;;;;;;5.90;2.30;;;15.50;99.90;;;;;;5078064;28;20052;-86
2024/04/07 02:29:22;;;;;;;8.95;2.95;;;15.40;99.90;;;;;;5077343;28;20044;-86
2024/04/07 02:31:48;;;;;;;4.25;2.30;;;15.30;99.90;;;;;;5077591;28;20056;-86
2024/04/07 02:34:13;;;;;;;4.90;2.22;;;15.30;99.90;;;;;;5077803;28;20032;-86
2024/04/07 02:36:40;;;;;;;3.60;2.13;;;15.30;99.90;;;;;;5076872;28;20028;-87
2024/04/07 02:39:09;;;;;;;4.10;2.03;;;15.40;99.90;;;;;;5095167;28;20534;-83
2024/04/07 02:41:40;;;;;;;4.40;2.20;;;15.40;99.90;;;;;;5076910;28;20032;-84
2024/04/07 02:44:06;;;;;;;4.85;2.13;;;15.40;99.90;;;;;;5075698;28;20455;-83
2024/04/07 02:49:16;;;;;;;3.85;2.40;;;15.40;99.90;;;;;;5096902;28;20034;-85
2024/04/07 02:51:42;;;;;;;3.95;2.40;;;15.40;99.90;;;;;;5077659;28;20114;-86
2024/04/07 02:54:10;;;;;;;3.75;2.20;;;15.30;99.90;;;;;;5095686;28;20035;-87
2024/04/07 02:56:35;;;;;;;6.47;2.80;;;15.30;99.90;;;;;;5077375;28;20025;-85
2024/04/07 02:59:01;;;;;;;4.68;2.40;;;15.30;99.90;;;;;;5095824;28;20045;-86
2024/04/07 03:01:27;;;;;;;4.72;2.30;;;15.30;99.90;;;;;;5095229;28;20044;-86
2024/04/07 03:03:52;;;;;;;7.68;2.40;;;15.20;99.90;;;;;;5058025;28;20136;-86
2024/04/07 03:06:19;;;;;;;4.45;2.35;;;15.10;99.90;;;;;;5057856;28;20040;-86
2024/04/07 03:08:44;;;;;;;6.85;2.55;;;15.10;99.90;;;;;;5057456;28;20067;-85
2024/04/07 03:11:10;;;;;;;4.75;2.78;;;15.00;99.90;;;;;;5075169;28;20071;-85
2024/04/07 03:13:36;;;;;;;4.80;2.17;;;14.80;99.90;;;;;;5057047;28;20458;-85
2024/04/07 03:16:08;;;;;;;7.60;2.42;;;14.80;99.90;;;;;;5057567;28;20474;-85
2024/04/07 03:18:33;;;;;;;6.70;2.20;;;14.90;99.90;;;;;;5056923;28;20478;-86
2024/04/07 03:20:59;;;;;;;4.05;2.40;;;14.90;99.90;;;;;;5057283;28;20106;-85
2024/04/07 03:23:24;;;;;;;6.93;2.50;;;14.80;99.90;;;;;;5056959;28;20363;-85
2024/04/07 03:25:50;;;;;;;3.80;2.35;;;14.70;99.90;;;;;;5057119;28;20025;-86
2024/04/07 03:28:15;;;;;;;2.90;2.05;;;14.70;99.90;;;;;;5057438;28;20028;-86
2024/04/07 03:30:42;;;;;;;3.72;2.20;;;14.60;99.90;;;;;;5056835;28;20450;-85
2024/04/07 03:33:07;;;;;;;4.72;2.25;;;14.70;99.90;;;;;;5057396;28;20081;-85
2024/04/07 03:35:33;;;;;;;4.50;2.55;;;14.70;99.90;;;;;;5074298;28;20028;-85
2024/04/07 03:37:59;;;;;;;5.45;2.40;;;14.70;99.90;;;;;;5056956;28;20028;-85
2024/04/07 03:40:25;;;;;;;4.55;2.35;;;14.60;99.90;;;;;;5056450;28;20127;-88
2024/04/07 03:42:51;;;;;;;5.68;2.28;;;14.70;99.90;;;;;;5056931;28;20517;-87
2024/04/07 03:45:16;;;;;;;3.88;2.15;;;14.60;99.90;;;;;;5056671;28;20055;-84
2024/04/07 03:47:42;;;;;;;3.20;1.83;;;14.60;99.90;;;;;;5056098;28;20020;-84
2024/04/07 03:50:08;;;;;;;4.63;2.35;;;14.70;99.90;;;;;;5056992;28;20039;-84
2024/04/07 03:52:34;;;;;;;5.78;2.25;;;14.80;99.90;;;;;;5056584;28;20522;-84
2024/04/07 03:55:00;;;;;;;6.15;2.22;;;14.80;99.90;;;;;;5056863;28;20479;-84
2024/04/07 03:57:25;;;;;;;4.05;1.83;;;14.70;99.90;;;;;;5055966;28;20059;-86
2024/04/07 03:59:51;;;;;;;5.78;1.80;;;14.70;99.90;;;;;;5056466;28;20024;-85
2024/04/07 04:02:35;;;;;;;5.00;1.90;;;14.90;99.90;;;;;;5056091;28;20056;-85
2024/04/07 04:05:04;;;;;;;4.65;1.90;;;15.10;99.90;;;;;;5074153;28;20047;-84
2024/04/07 04:07:31;;;;;;;7.70;2.58;;;15.20;99.90;;;;;;5056118;28;20431;-85
2024/04/07 04:10:00;;;;;;;3.53;2.30;;;15.00;99.90;;;;;;5056600;28;20075;-85
2024/04/07 04:12:28;;;;;;;7.40;2.55;;;15.00;99.90;;;;;;5073680;28;20020;-87
2024/04/07 04:14:55;;;;;;;3.53;2.10;;;14.90;99.90;;;;;;5056694;28;20416;-86
2024/04/07 04:17:21;;;;;;;6.32;1.63;;;14.90;99.90;;;;;;5056503;28;20024;-85
2024/04/07 04:19:47;;;;;;;2.95;2.13;;;14.90;99.90;;;;;;5055847;28;20032;-86
2024/04/07 04:22:13;;;;;;;6.78;2.30;;;15.00;99.90;;;;;;5056027;28;20028;-85
2024/04/07 04:24:39;;;;;;;4.35;2.15;;;15.10;99.90;;;;;;5055641;28;20046;-85
2024/04/07 04:27:05;;;;;;;3.63;1.98;;;15.10;99.90;;;;;;5073863;28;20031;-87
2024/04/07 04:29:35;;;;;;;2.42;1.60;;;15.10;99.90;;;;;;5056429;28;20386;-87
2024/04/07 04:32:01;;;;;;;4.65;2.00;;;15.10;99.90;;;;;;5074086;28;20074;-87
2024/04/07 04:34:28;;;;;;;4.05;1.52;;;15.20;99.90;;;;;;5073189;28;20048;-86
2024/04/07 04:36:55;;;;;;;4.97;1.90;;;15.30;99.90;;;;;;5073749;28;20111;-87
2024/04/07 04:39:21;;;;;;;6.07;1.60;;;15.40;99.90;;;;;;5073665;28;20025;-87
2024/04/07 04:41:48;;;;;;;3.80;1.60;;;15.50;99.90;;;;;;5055446;28;20032;-87
2024/04/07 04:44:15;;;;;;;6.88;1.90;;;15.60;99.90;;;;;;5073817;28;20059;-87
2024/04/07 04:46:42;;;;;;;3.60;1.70;;;15.50;99.90;;;;;;5055445;28;20029;-87
2024/04/07 04:49:09;;;;;;;3.40;1.55;;;15.60;99.90;;;;;;5056085;28;20119;-87
2024/04/07 04:51:34;;;;;;;4.43;1.65;;;15.60;99.90;;;;;;5055308;28;20033;-87
2024/04/07 04:54:00;;;;;;;2.17;1.27;;;15.70;99.90;;;;;;5055799;28;20351;-87
2024/04/07 04:56:26;;;;;;;8.20;1.52;;;15.80;99.90;;;;;;5055381;28;20024;-87
2024/04/07 04:58:53;;;;;;;4.72;1.20;;;16.00;99.90;;;;;;5055393;28;20024;-86
2024/04/07 05:01:19;;;;;;;6.03;0.90;;;16.10;99.30;;;;;;5055686;28;20385;-87
2024/04/07 05:03:45;;;;;;;5.72;1.13;;;16.30;98.60;;;;;;5054707;28;20056;-87
2024/04/07 05:06:12;;;;;;;8.48;1.27;;;16.50;98.10;;;;;;5055776;28;20036;-85
2024/04/07 05:08:42;;;;;;;3.78;1.00;;;16.70;97.60;;;;;;5056810;28;20031;-85
2024/04/07 05:11:07;;;;;;;8.43;1.10;;;16.80;97.00;;;;;;5059798;28;20030;-85
2024/04/07 05:13:34;;;;;;;4.50;0.77;;;17.00;96.50;;;;;;5077055;28;20029;-88
2024/04/07 05:16:00;;;;;;;5.50;0.82;;;17.20;96.20;;;;;;5077170;28;20032;-87
2024/04/07 05:18:27;;;;;;;6.10;0.95;;;17.30;95.90;;;;;;5059550;28;20386;-88
2024/04/07 05:20:53;;;;;;;3.92;0.90;;;17.50;95.40;;;;;;5059020;28;20064;-88
2024/04/07 05:23:19;;;;;;;2.15;0.90;;;17.60;95.10;;;;;;5059693;28;20477;-88
2024/04/07 05:25:45;;;;;;;5.70;0.98;;;17.70;94.90;;;;;;5059067;28;20033;-88
2024/04/07 05:28:11;;;;;;;6.57;1.23;;;17.80;94.60;;;;;;5059774;28;20127;-88
2024/04/07 05:30:37;;;;;;;4.13;1.10;;;18.00;94.20;;;;;;5076877;28;20025;-87
2024/04/07 05:33:03;;;;;;;3.67;1.00;;;18.10;94.20;;;;;;5059601;28;20056;-83
2024/04/07 05:35:30;;;;;;;3.22;0.73;;;18.10;94.30;;;;;;5059136;28;20040;-85
2024/04/07 05:37:56;;;;;;;6.22;0.90;;;18.10;94.10;;;;;;5059294;28;20020;-83
2024/04/07 05:40:21;;;;;;;5.28;1.00;;;18.10;94.10;;;;;;5058820;28;20106;-85
2024/04/07 05:42:47;;;;;;;5.65;0.82;;;18.10;93.90;;;;;;5059371;28;20028;-86
2024/04/07 05:45:15;;;;;;;3.28;0.90;;;18.10;94.10;;;;;;5059667;28;20105;-88
2024/04/07 05:47:41;;;;;;;4.03;0.90;;;18.10;93.90;;;;;;5075777;28;20029;-90
2024/04/07 05:50:07;;;;;;;3.63;0.85;;;18.10;94.10;;;;;;5059197;28;20465;-90
2024/04/07 05:52:33;;;;;;;4.60;0.95;;;18.10;94.10;;;;;;5076837;28;20020;-89
2024/04/07 05:54:58;;;;;;;4.30;0.98;;;18.10;94.10;;;;;;5059654;28;20033;-91
2024/04/07 05:57:24;;;;;;;4.93;0.80;;;18.10;94.20;;;;;;5059409;28;20043;-91
2024/04/07 05:59:49;;;;;;;3.25;0.50;;;18.10;94.10;;;;;;5058597;28;20102;-90
2024/04/07 06:02:15;;;;;;;3.78;0.85;;;18.10;94.00;;;;;;5058708;28;20078;-91
2024/04/07 06:04:43;;;;;;;3.95;0.65;;;18.10;94.00;;;;;;5076117;28;20029;-90
2024/04/07 06:07:08;;;;;;;8.23;1.27;;;18.10;94.10;;;;;;5059179;28;20024;-88
2024/04/07 06:09:34;;;;;;;2.00;0.80;;;18.10;94.00;;;;;;5058818;28;20027;-88
2024/04/07 06:11:59;;;;;;;4.35;0.80;;;18.10;94.20;;;;;;5076637;28;20116;-90
2024/04/07 06:14:25;;;;;;;7.32;2.08;;;18.10;94.20;;;;;;5059190;28;20393;-89
2024/04/07 06:16:51;;;;;;;6.78;1.83;;;18.10;94.20;;;;;;5058591;28;20179;-90
2024/04/07 06:19:16;;;;;;;8.57;1.75;;;18.10;94.10;;;;;;5059016;28;20027;-90
2024/04/07 06:21:42;;;;;;;7.47;1.20;;;18.10;94.30;;;;;;5057953;28;20037;-86
2024/04/07 06:24:07;;;;;;;2.80;0.82;;;18.10;94.00;;;;;;5058477;28;20024;-84
2024/04/07 06:26:34;;;;;;;7.60;0.93;;;18.10;94.00;;;;;;5075894;28;20511;-87
2024/04/07 06:29:00;;;;;;;3.08;1.00;;;18.10;94.30;;;;;;5058404;28;20056;-85
2024/04/07 06:31:25;;;;;;;8.98;1.02;;;18.10;94.40;;;;;;5058624;28;20031;-85
2024/04/07 06:33:51;;;;;;;5.78;1.10;;;18.10;94.20;;;;;;5057940;28;20171;-86
2024/04/07 06:36:16;;;;;;;4.50;1.05;;;18.10;94.30;;;;;;5058568;28;20086;-86
2024/04/07 06:38:42;;;;;;;5.95;1.17;;;18.20;94.20;;;;;;5057720;28;20028;-86
2024/04/07 06:41:07;;;;;;;3.42;0.80;;;18.20;94.30;;;;;;5058512;28;20032;-85
2024/04/07 06:43:35;;;;;;;5.82;0.93;;;18.20;94.30;;;;;;5058094;28;20423;-87
2024/04/07 06:46:01;;;;;;;5.32;0.98;;;18.20;94.40;;;;;;5075723;28;20024;-86
2024/04/07 06:48:27;;;;;;;4.35;0.68;;;18.20;94.70;;;;;;5075445;28;20021;-86
2024/04/07 06:50:53;;;;;;;6.38;1.20;;;18.20;94.60;;;;;;5057513;28;20028;-83
2024/04/07 06:53:18;;;;;;;2.72;0.75;;;18.20;94.30;;;;;;5057914;28;20029;-84
2024/04/07 06:55:44;;;;;;;3.50;1.08;;;18.30;94.50;;;;;;5075588;28;20029;-85
2024/04/07 06:58:10;;;;;;;4.28;0.80;;;18.30;94.40;;;;;;5058017;28;20028;-84
2024/04/07 07:00:35;;;;;;;3.70;1.17;;;18.30;94.30;;;;;;5057185;28;20035;-87
2024/04/07 07:03:01;;;;;;;3.28;0.60;;;18.30;94.40;;;;;;5069533;28;20112;-84
2024/04/07 07:05:27;;;;;;;4.97;0.93;;;18.30;94.60;;;;;;5077509;28;20036;-85
2024/04/07 07:07:52;;;;;;;5.13;1.40;;;18.30;94.40;;;;;;5095244;28;20097;-85
2024/04/07 07:10:18;;;;;;;3.83;0.85;;;18.30;94.60;;;;;;5095223;28;20059;-84
2024/04/07 07:12:43;;;;;;;3.67;0.75;;;18.30;94.70;;;;;;5076835;28;20039;-84
2024/04/07 07:15:09;;;;;;;5.22;0.80;;;18.30;94.60;;;;;;5095221;28;20024;-84
2024/04/07 07:17:34;;;;;;;2.22;0.60;;;18.30;94.80;;;;;;5095101;28;20483;-86
2024/04/07 07:20:00;;;;;;;4.07;0.80;;;18.30;95.00;;;;;;5094943;28;20032;-84
2024/04/07 07:22:26;;;;;;;4.05;0.77;;;18.30;95.00;;;;;;5077358;28;20035;-84
2024/04/07 07:24:51;;;;;;;5.10;0.75;;;18.30;95.10;;;;;;5076317;28;20362;-84
2024/04/07 07:27:17;;;;;;;8.10;1.10;;;18.30;95.60;;;;;;5077452;28;20447;-84
2024/04/07 07:29:42;;;;;;;2.42;1.10;;;18.30;95.50;;;;;;5077198;28;20028;-84
2024/04/07 07:32:10;;;;;;;4.38;0.73;;;18.40;95.40;;;;;;5076571;28;20032;-85
2024/04/07 07:34:36;;;;;;;5.22;1.00;;;18.40;95.60;;;;;;5077222;28;20032;-85
2024/04/07 07:37:01;;;;;;;3.15;0.90;;;18.30;95.40;;;;;;5076971;28;20354;-85
2024/04/07 07:39:27;;;;;;;3.92;0.77;;;18.30;95.60;;;;;;5077186;28;20020;-85
2024/04/07 07:41:53;;;;;;;4.60;0.80;;;18.40;95.80;;;;;;5076613;28;20405;-85
2024/04/07 07:44:18;;;;;;;4.22;1.00;;;18.40;96.00;;;;;;5076808;28;20028;-84
2024/04/07 07:46:44;;;;;;;2.38;0.73;;;18.40;96.20;;;;;;5076361;28;20024;-85
2024/04/07 07:49:10;;;;;;;5.22;1.13;;;18.40;96.30;;;;;;5094613;28;20024;-83
2024/04/07 07:51:35;;;;;;;4.35;0.65;;;18.40;96.40;;;;;;5094390;28;20342;-85
2024/04/07 07:54:01;;;;;;;2.45;0.70;;;18.40;96.70;;;;;;5076669;28;20039;-85
2024/04/07 07:56:26;;;;;;;3.50;1.20;;;18.40;96.80;;;;;;5077005;28;20024;-86
2024/04/07 07:58:52;;;;;;;6.43;1.15;;;18.40;96.80;;;;;;5076402;28;20035;-88
2024/04/07 08:01:18;;;;;;;5.05;1.05;;;18.40;96.90;;;;;;5094623;28;20398;-88
2024/04/07 08:03:43;;;;;;;4.78;1.05;;;18.50;97.20;;;;;;5057333;28;20093;-85
2024/04/07 08:06:09;;;;;;;2.47;0.60;;;18.40;97.00;;;;;;5056032;28;20059;-84
2024/04/07 08:08:34;;;;;;;5.60;1.20;;;18.40;97.10;;;;;;5056364;28;20138;-86
2024/04/07 08:11:00;;;;;;;7.22;1.23;;;18.40;97.20;;;;;;5073729;28;20036;-86
2024/04/07 08:13:26;;;;;;;4.60;1.05;;;18.40;97.30;;;;;;5056268;28;20099;-86
2024/04/07 08:15:51;;;;;;;8.07;1.20;;;18.40;97.20;;;;;;5055067;28;20123;-85
2024/04/07 08:18:17;;;;;;;3.20;0.95;;;18.40;97.60;;;;;;5056166;28;20029;-85
2024/04/07 08:20:43;;;;;;;3.35;0.90;;;18.50;97.70;;;;;;5073029;28;20173;-85
2024/04/07 08:23:10;;;;;;;2.92;0.82;;;18.50;97.50;;;;;;5056258;28;20086;-84
2024/04/07 08:25:36;;;;;;;5.65;1.10;;;18.50;97.30;;;;;;5073884;28;20054;-83
2024/04/07 08:28:04;;;;;;;3.05;0.90;;;18.50;97.40;;;;;;5055830;28;20024;-84
2024/04/07 08:30:29;;;;;;;3.78;0.88;;;18.50;97.40;;;;;;5056130;28;20033;-82
2024/04/07 08:32:56;;;;;;;3.80;1.05;;;18.50;97.50;;;;;;5055585;28;20032;-84
2024/04/07 08:35:22;;;;;;;3.13;1.20;;;18.60;97.80;;;;;;5056426;28;20540;-87
2024/04/07 08:37:47;;;;;;;5.70;1.02;;;18.60;97.50;;;;;;5073262;28;20095;-88
2024/04/07 08:40:13;;;;;;;4.43;0.80;;;18.70;97.90;;;;;;5056747;28;20140;-94
2024/04/07 08:42:40;;;;;;;4.32;1.00;;;18.70;97.90;;;;;;5056143;28;20116;-87
2024/04/07 08:45:07;;;;;;;4.15;1.08;;;18.80;97.90;;;;;;5059554;28;20032;-83
2024/04/07 08:47:36;;;;;;;3.83;1.00;;;18.80;97.80;;;;;;5072752;28;20020;-84
2024/04/07 08:50:05;;;;;;;4.35;1.30;;;18.90;97.00;;;;;;5060598;28;20458;-85
2024/04/07 08:52:31;;;;;;;3.00;1.23;;;18.90;97.30;;;;;;5077711;28;20025;-87
2024/04/07 08:54:58;;;;;;;2.80;0.98;;;19.10;97.00;;;;;;5059450;28;20039;-87
2024/04/07 08:57:24;;;;;;;4.07;0.90;;;19.20;96.20;;;;;;5060068;28;20029;-87
2024/04/07 08:59:51;;;;;;;2.70;1.00;;;19.30;96.50;;;;;;5059385;28;20158;-91
2024/04/07 09:02:18;;;;;;;3.55;1.10;;;19.40;96.30;;;;;;5065847;28;20052;-92
2024/04/07 09:04:44;;;;;;;5.47;1.30;;;19.40;96.30;;;;;;5079521;28;20031;-89
2024/04/07 09:07:12;;;;;;;2.53;1.05;;;19.50;97.30;;;;;;5079915;28;20020;-88
2024/04/07 09:09:38;;;;;;;5.60;1.00;;;19.60;96.60;;;;;;5079877;28;20456;-92
2024/04/07 09:12:07;;;;;;;9.60;0.93;;;19.80;97.60;;;;;;5096667;28;20031;-85
2024/04/07 09:14:34;;;;;;;3.80;1.00;;;19.90;96.50;;;;;;5097394;28;20028;-88
2024/04/07 09:17:07;;;;;;;8.50;1.40;;;20.00;96.70;;;;;;5067190;28;20029;-86
2024/04/07 09:19:34;;;;;;;3.85;1.08;;;20.10;96.30;;;;;;5063879;28;20035;-88
2024/04/07 09:22:02;;;;;;;7.90;1.52;;;20.10;96.60;;;;;;5079358;28;20032;-88
2024/04/07 09:24:30;;;;;;;10.13;3.20;;;20.20;96.40;;;;;;5079710;28;20039;-88
2024/04/07 09:26:59;;;;;;;7.93;2.20;;;20.10;96.50;;;;;;5078829;28;20025;-88
2024/04/07 09:29:28;;;;;;;5.20;2.10;;;20.10;96.30;;;;;;5080191;28;20020;-87
2024/04/07 09:31:54;;;;;;;6.70;1.60;;;20.10;96.20;;;;;;5079159;28;20024;-87
2024/04/07 09:34:20;;;;;;;16.42;7.40;;;20.10;96.40;;;;;;5078947;28;20042;-85
2024/04/07 09:36:46;;;;;;;13.07;4.18;;;20.10;96.30;;;;;;5078276;28;20107;-87
2024/04/07 09:39:11;;;;;;;18.65;7.90;;;20.10;95.80;;;;;;5079385;28;20020;-88
2024/04/07 09:41:37;;;;;;;35.85;14.70;;;20.10;96.10;;;;;;5079141;28;20441;-86
2024/04/07 09:44:08;;;;;;;6.85;3.20;;;20.10;96.90;;;;;;5078467;28;20170;-84
2024/04/07 09:46:37;;;;;;;10.68;6.57;;;20.20;97.50;;;;;;5069710;28;20103;-84
2024/04/07 09:49:07;;;;;;;13.43;4.10;;;20.30;96.40;;;;;;5057844;28;20297;-88
2024/04/07 09:51:38;;;;;;;9.00;2.78;;;20.40;96.30;;;;;;5078555;28;20032;-85
2024/04/07 09:54:37;;;;;;;7.07;1.67;;;20.40;96.30;;;;;;5077647;28;20058;-87
2024/04/07 09:57:05;;;;;;;3.75;1.50;;;20.50;95.70;;;;;;5078673;28;20180;-89
2024/04/07 09:59:30;;;;;;;2.35;0.90;;;20.50;96.20;;;;;;5078852;28;20077;-85
2024/04/07 10:01:57;;;;;;;6.18;1.13;;;20.60;96.00;;;;;;5077828;28;20048;-86
2024/04/07 10:04:25;;;;;;;4.93;0.90;;;20.70;95.90;;;;;;5078552;28;20122;-86
2024/04/07 10:06:52;;;;;;;4.43;0.95;;;20.80;96.00;;;;;;5078443;28;20075;-87
2024/04/07 10:09:18;;;;;;;5.22;1.60;;;20.80;95.00;;;;;;5078664;28;20554;-85
2024/04/07 10:11:48;;;;;;;2.22;0.82;;;21.00;95.60;;;;;;5078276;28;20028;-86
2024/04/07 10:14:17;;;;;;;4.72;0.80;;;21.10;95.40;;;;;;5096377;28;20024;-88
2024/04/07 10:16:50;;;;;;;7.88;1.55;;;21.20;95.30;;;;;;5086328;28;20062;-88
2024/04/07 10:19:26;;;;;;;6.15;1.10;;;21.30;94.30;;;;;;5094582;28;20024;-84
2024/04/07 10:21:52;;;;;;;2.33;0.95;;;21.30;93.50;;;;;;5078164;28;20032;-89
2024/04/07 10:24:18;;;;;;;4.00;0.93;;;21.30;93.40;;;;;;5078442;28;20362;-88
2024/04/07 10:26:54;;;;;;;4.30;1.27;;;21.30;93.90;;;;;;5078331;28;20028;-86
2024/04/07 10:29:19;;;;;;;6.85;0.98;;;21.30;93.30;;;;;;5078391;28;20043;-82
2024/04/07 10:31:46;;;;;;;4.32;1.00;;;21.40;92.90;;;;;;5077579;28;20042;-86
2024/04/07 10:34:13;;;;;;;5.88;1.05;;;21.40;92.70;;;;;;5078139;28;20036;-86
2024/04/07 10:36:38;;;;;;;3.33;0.70;;;21.40;93.00;;;;;;5078510;28;20036;-90
2024/04/07 10:39:04;;;;;;;3.08;0.75;;;21.50;93.60;;;;;;5077941;28;20618;-87
2024/04/07 10:41:31;;;;;;;3.60;0.95;;;21.50;92.70;;;;;;5095843;28;20109;-91
2024/04/07 10:43:58;;;;;;;5.88;0.70;;;21.50;92.40;;;;;;5077245;28;20033;-91
2024/04/07 10:46:25;;;;;;;3.90;0.90;;;21.50;92.40;;;;;;5070724;28;20024;-91
2024/04/07 10:48:53;;;;;;;1.48;0.73;;;21.60;92.10;;;;;;5090337;28;20024;-93
2024/04/07 10:51:19;;;;;;;4.57;1.00;;;21.60;92.10;;;;;;5077532;28;20032;-88
2024/04/07 10:53:46;;;;;;;3.67;0.75;;;21.70;92.40;;;;;;5077526;28;20354;-87
2024/04/07 10:56:12;;;;;;;2.67;0.90;;;21.60;92.50;;;;;;5077711;28;20024;-93
2024/04/07 10:58:39;;;;;;;1.30;0.57;;;21.60;91.90;;;;;;5077228;28;20034;-88
2024/04/07 11:01:05;;;;;;;4.35;0.70;;;21.60;91.90;;;;;;5076643;28;20232;-88
2024/04/07 11:03:33;;;;;;;1.75;0.63;;;21.60;90.70;;;;;;5060514;28;20587;-87
2024/04/07 11:06:00;;;;;;;6.30;1.10;;;21.60;91.00;;;;;;5056199;28;20036;-89
2024/04/07 11:08:27;;;;;;;3.38;0.98;;;21.60;90.20;;;;;;5074704;28;20489;-90
2024/04/07 11:10:53;;;;;;;4.00;0.70;;;21.60;90.30;;;;;;5074428;28;20032;-89
2024/04/07 11:13:20;;;;;;;3.67;0.70;;;21.60;90.70;;;;;;5057337;28;20033;-93
2024/04/07 11:15:50;;;;;;;5.65;0.95;;;21.60;91.40;;;;;;5056928;28;20025;-88
2024/04/07 11:18:18;;;;;;;4.68;0.82;;;21.70;91.80;;;;;;5056927;28;20024;-87
2024/04/07 11:20:44;;;;;;;2.85;1.00;;;21.80;91.30;;;;;;5056623;28;20531;-88
2024/04/07 11:23:11;;;;;;;3.83;0.82;;;21.90;91.20;;;;;;5073875;28;20051;-88
2024/04/07 11:25:37;;;;;;;3.25;0.70;;;21.90;91.60;;;;;;5056841;28;20050;-91
2024/04/07 11:28:04;;;;;;;5.20;1.38;;;22.00;92.00;;;;;;5056675;28;20020;-87
2024/04/07 11:30:48;;;;;;;4.88;0.95;;;22.20;91.90;;;;;;5057021;28;20405;-88
2024/04/07 11:33:15;;;;;;;3.70;0.82;;;22.30;91.50;;;;;;5057107;28;20028;-86
2024/04/07 11:35:44;;;;;;;6.25;1.00;;;22.30;91.20;;;;;;5057247;28;20421;-86
2024/04/07 11:38:13;;;;;;;4.22;0.80;;;22.40;91.70;;;;;;5056646;28;20032;-88
2024/04/07 11:40:39;;;;;;;4.07;0.95;;;22.50;91.30;;;;;;5056953;28;20060;-88
2024/04/07 11:43:06;;;;;;;4.82;1.10;;;22.60;92.10;;;;;;5056459;28;20079;-86
2024/04/07 11:45:32;;;;;;;3.75;0.80;;;22.60;92.50;;;;;;5074674;28;20039;-86
2024/04/07 11:48:01;;;;;;;5.65;0.90;;;22.80;91.90;;;;;;5036523;28;20029;-85
2024/04/07 11:50:26;;;;;;;5.30;1.33;;;22.80;90.30;;;;;;5048238;28;20033;-85
2024/04/07 11:52:52;;;;;;;2.22;0.70;;;22.90;90.00;;;;;;5056391;28;20035;-85
2024/04/07 11:55:17;;;;;;;3.63;0.80;;;22.90;90.30;;;;;;5056618;28;20025;-85
2024/04/07 11:57:44;;;;;;;4.45;0.93;;;22.90;88.90;;;;;;5074315;28;20028;-84
2024/04/07 12:00:10;;;;;;;3.65;1.00;;;23.00;89.40;;;;;;5056305;28;20040;-87
2024/04/07 12:02:36;;;;;;;6.47;1.23;;;23.00;87.10;;;;;;5056081;28;20044;-89
2024/04/07 12:05:02;;;;;;;5.88;1.10;;;23.10;84.80;;;;;;5056044;28;20032;-89
2024/04/07 12:07:29;;;;;;;5.75;0.63;;;23.10;86.00;;;;;;5053374;28;20029;-88
2024/04/07 12:09:55;;;;;;;4.20;0.95;;;23.20;86.70;;;;;;5035824;28;20028;-89
2024/04/07 12:12:21;;;;;;;5.70;0.80;;;23.20;88.30;;;;;;5053135;28;20025;-85
2024/04/07 12:14:46;;;;;;;3.47;0.80;;;23.40;87.00;;;;;;5036065;28;20060;-90
2024/04/07 12:17:12;;;;;;;1.80;0.80;;;23.40;84.40;;;;;;5057950;28;20025;-94
2024/04/07 12:19:38;;;;;;;5.13;0.77;;;23.30;87.60;;;;;;5054278;28;20050;-92
2024/04/07 12:22:13;;;;;;;5.20;0.63;;;23.40;85.90;;;;;;5073621;28;20086;-92
2024/04/07 12:24:39;;;;;;;3.92;0.75;;;23.50;84.60;;;;;;5056408;28;20119;-91
2024/04/07 12:27:05;;;;;;;1.25;0.70;;;23.40;84.40;;;;;;5055823;28;20063;-91
2024/04/07 12:29:30;;;;;;;7.72;1.13;;;23.40;85.00;;;;;;5073931;28;20771;-91
2024/04/07 12:31:56;;;;;;;3.55;0.98;;;23.40;84.20;;;;;;5055592;28;20091;-92
2024/04/07 12:34:22;;;;;;;4.07;1.42;;;23.30;84.10;;;;;;5056269;28;20480;-89
2024/04/07 12:36:48;;;;;;;2.53;0.70;;;23.30;85.60;;;;;;5073635;28;20025;-86
2024/04/07 12:39:13;;;;;;;4.43;1.00;;;23.30;84.80;;;;;;5055869;28;20028;-93
2024/04/07 12:41:39;;;;;;;3.83;0.80;;;23.20;87.20;;;;;;5056012;28;20035;-91
2024/04/07 12:44:05;;;;;;;5.47;0.73;;;23.30;86.50;;;;;;5055723;28;20032;-88